createdAt,value
2022-12-07T00:01:27.941Z,66.68
2022-12-07T00:03:58.323Z,66.75
2022-12-07T00:06:25.159Z,68.49
2022-12-07T00:08:51.855Z,68.68
2022-12-07T00:11:21.838Z,70.22
2022-12-07T00:13:52.760Z,69.66
2022-12-07T00:16:20.964Z,69.63
2022-12-07T00:18:47.952Z,68.39
2022-12-07T00:21:20.327Z,65.50
2022-12-07T00:23:48.398Z,65.92
2022-12-07T00:26:20.686Z,66.33
2022-12-07T00:28:51.352Z,66.72
2022-12-07T00:31:20.063Z,67.34
2022-12-07T00:33:47.565Z,69.54
2022-12-07T00:36:18.219Z,69.89
2022-12-07T00:38:47.965Z,71.70
2022-12-07T00:41:17.242Z,70.40
2022-12-07T00:43:45.196Z,69.97
2022-12-07T00:46:12.818Z,68.84
2022-12-07T00:48:40.099Z,67.93
2022-12-07T00:51:07.605Z,68.10
2022-12-07T00:53:41.259Z,67.40
2022-12-07T00:56:10.506Z,69.64
2022-12-07T00:58:37.361Z,70.41
2022-12-07T01:01:04.544Z,70.06
2022-12-07T01:03:31.604Z,67.99
2022-12-07T01:05:59.261Z,69.49
2022-12-07T01:08:27.343Z,69.63
2022-12-07T01:11:09.130Z,71.15
2022-12-07T01:13:37.135Z,66.12
2022-12-07T01:16:05.998Z,66.78
2022-12-07T01:18:35.035Z,66.48
2022-12-07T01:21:14.855Z,66.90
2022-12-07T01:23:41.951Z,66.77
2022-12-07T01:26:12.792Z,64.67
2022-12-07T01:28:40.143Z,65.02
2022-12-07T01:31:18.080Z,63.35
2022-12-07T01:33:47.885Z,62.57
2022-12-07T01:36:20.658Z,61.77
2022-12-07T01:38:52.699Z,62.97
2022-12-07T01:41:21.205Z,63.85
2022-12-07T01:44:23.634Z,63.30
2022-12-07T01:46:56.891Z,66.29
2022-12-07T01:49:37.488Z,66.70
2022-12-07T01:52:24.565Z,66.81
2022-12-07T01:54:55.738Z,69.39
2022-12-07T01:57:22.936Z,69.70
2022-12-07T01:59:52.714Z,71.49
2022-12-07T02:02:22.098Z,70.49
2022-12-07T02:04:49.045Z,75.52
2022-12-07T02:07:16.406Z,73.37
2022-12-07T02:09:45.274Z,75.15
2022-12-07T02:12:12.234Z,75.96
2022-12-07T02:14:39.263Z,77.04
2022-12-07T02:17:14.197Z,74.68
2022-12-07T02:19:53.035Z,74.94
2022-12-07T02:22:46.402Z,72.63
2022-12-07T02:25:48.352Z,71.59
2022-12-07T02:28:24.273Z,75.45
2022-12-07T02:30:51.949Z,73.71
2022-12-07T02:33:33.406Z,74.23
2022-12-07T02:36:05.000Z,75.39
2022-12-07T02:38:40.019Z,76.56
2022-12-07T02:41:45.957Z,77.57
2022-12-07T02:44:15.726Z,78.94
2022-12-07T02:46:45.981Z,78.66
2022-12-07T02:49:13.046Z,78.24
2022-12-07T02:51:44.753Z,76.15
2022-12-07T02:54:21.057Z,76.12
2022-12-07T02:56:54.890Z,72.81
2022-12-07T02:59:49.328Z,71.98
2022-12-07T03:02:33.181Z,73.45
2022-12-07T03:05:15.264Z,76.52
2022-12-07T03:07:52.968Z,76.69
2022-12-07T03:10:37.721Z,77.89
2022-12-07T03:13:17.261Z,76.62
2022-12-07T03:15:52.478Z,75.96
2022-12-07T03:18:22.862Z,78.02
2022-12-07T03:20:51.466Z,76.07
2022-12-07T03:23:19.380Z,75.88
2022-12-07T03:25:55.767Z,74.82
2022-12-07T03:28:29.753Z,72.40
2022-12-07T03:31:28.014Z,71.39
2022-12-07T03:34:06.855Z,71.93
2022-12-07T03:36:39.262Z,70.22
2022-12-07T03:39:25.743Z,69.49
2022-12-07T03:41:53.376Z,69.40
2022-12-07T03:44:21.412Z,68.81
2022-12-07T03:46:51.010Z,68.44
2022-12-07T03:49:26.262Z,67.41
2022-12-07T03:52:01.317Z,67.95
2022-12-07T03:54:33.765Z,68.70
2022-12-07T03:57:01.682Z,69.10
2022-12-07T03:59:29.501Z,66.39
2022-12-07T04:01:58.892Z,65.03
2022-12-07T04:04:26.085Z,64.79
2022-12-07T04:06:53.115Z,65.82
2022-12-07T04:09:20.138Z,64.94
2022-12-07T04:11:47.200Z,65.26
2022-12-07T04:14:19.872Z,63.72
2022-12-07T04:16:54.028Z,65.71
2022-12-07T04:19:22.651Z,67.45
2022-12-07T04:21:49.522Z,66.96
2022-12-07T04:24:16.900Z,69.44
2022-12-07T04:26:44.397Z,68.38
2022-12-07T04:29:11.555Z,69.85
2022-12-07T04:31:38.892Z,71.71
2022-12-07T04:34:05.897Z,72.26
2022-12-07T04:36:33.307Z,72.98
2022-12-07T04:39:01.586Z,73.23
2022-12-07T04:41:28.527Z,73.47
2022-12-07T04:44:00.380Z,74.66
2022-12-07T04:46:28.092Z,74.08
2022-12-07T04:48:55.420Z,72.47
2022-12-07T04:51:27.814Z,73.88
2022-12-07T04:53:55.515Z,73.59
2022-12-07T04:56:23.030Z,72.67
2022-12-07T04:58:50.574Z,74.07
2022-12-07T05:01:18.620Z,72.36
2022-12-07T05:03:46.043Z,70.46
2022-12-07T05:06:13.925Z,70.02
2022-12-07T05:08:41.460Z,69.04
2022-12-07T05:11:09.144Z,69.43
2022-12-07T05:13:36.771Z,68.44
2022-12-07T05:16:04.207Z,69.66
2022-12-07T05:18:31.090Z,68.15
2022-12-07T05:20:57.759Z,76.06
2022-12-07T05:23:24.654Z,74.99
2022-12-07T05:25:51.848Z,70.00
2022-12-07T05:28:18.751Z,68.99
2022-12-07T05:30:45.606Z,65.05
2022-12-07T05:33:12.467Z,63.13
2022-12-07T05:35:40.051Z,62.31
2022-12-07T05:38:06.916Z,63.12
2022-12-07T05:40:33.759Z,64.54
2022-12-07T05:43:04.493Z,65.32
2022-12-07T05:45:32.131Z,66.05
2022-12-07T05:47:59.228Z,67.95
2022-12-07T05:50:26.241Z,68.04
2022-12-07T05:52:53.086Z,68.20
2022-12-07T05:55:19.762Z,70.83
2022-12-07T05:58:06.614Z,70.37
2022-12-07T06:00:34.252Z,68.04
2022-12-07T06:03:01.367Z,69.16
2022-12-07T06:05:28.291Z,67.56
2022-12-07T06:07:55.038Z,65.80
2022-12-07T06:10:21.986Z,66.62
2022-12-07T06:12:48.819Z,62.73
2022-12-07T06:15:15.797Z,62.72
2022-12-07T06:17:42.688Z,62.57
2022-12-07T06:20:10.725Z,63.15
2022-12-07T06:22:37.598Z,62.42
2022-12-07T06:25:09.961Z,63.29
2022-12-07T06:27:36.919Z,63.94
2022-12-07T06:30:07.778Z,64.48
2022-12-07T06:32:35.195Z,66.91
2022-12-07T06:35:02.289Z,64.38
2022-12-07T06:37:29.218Z,64.99
2022-12-07T06:39:56.120Z,62.85
2022-12-07T06:42:23.201Z,63.76
2022-12-07T06:44:50.271Z,63.83
2022-12-07T06:47:40.419Z,66.99
2022-12-07T06:50:05.054Z,65.96
2022-12-07T06:52:32.039Z,65.91
2022-12-07T06:54:59.873Z,62.91
2022-12-07T06:57:27.339Z,64.62
2022-12-07T06:59:54.210Z,67.51
2022-12-07T07:02:21.177Z,67.43
2022-12-07T07:04:48.043Z,70.60
2022-12-07T07:07:14.704Z,71.09
2022-12-07T07:09:42.569Z,69.20
2022-12-07T07:12:09.517Z,67.80
2022-12-07T07:14:36.948Z,66.30
2022-12-07T07:17:03.892Z,65.86
2022-12-07T07:23:11.917Z,64.50
2022-12-07T07:25:38.806Z,63.13
2022-12-07T07:28:06.138Z,60.30
2022-12-07T07:30:33.113Z,59.30
2022-12-07T07:33:01.377Z,59.82
2022-12-07T07:35:29.574Z,61.88
2022-12-07T07:37:57.012Z,60.83
2022-12-07T07:40:24.423Z,61.22
2022-12-07T07:42:52.749Z,60.42
2022-12-07T07:45:20.586Z,63.68
2022-12-07T07:47:47.665Z,64.18
2022-12-07T07:50:15.037Z,65.03
2022-12-07T07:52:41.888Z,63.99
2022-12-07T07:55:12.271Z,65.16
2022-12-07T07:57:40.117Z,61.21
2022-12-07T08:00:10.190Z,61.74
2022-12-07T08:02:37.126Z,64.06
2022-12-07T08:05:04.292Z,63.27
2022-12-07T08:07:31.226Z,64.46
2022-12-07T08:09:58.103Z,63.10
2022-12-07T08:12:24.953Z,62.70
2022-12-07T08:14:51.807Z,61.15
2022-12-07T08:17:18.702Z,62.43
2022-12-07T08:19:45.572Z,61.39
2022-12-07T08:22:12.453Z,61.94
2022-12-07T08:24:39.328Z,61.27
2022-12-07T08:27:06.395Z,59.60
2022-12-07T08:29:33.394Z,58.34
2022-12-07T08:32:05.342Z,59.10
2022-12-07T08:34:36.963Z,58.42
2022-12-07T08:37:03.879Z,58.82
2022-12-07T08:39:32.165Z,57.21
2022-12-07T08:41:59.441Z,57.02
2022-12-07T08:44:26.387Z,56.76
2022-12-07T08:46:57.478Z,57.16
2022-12-07T08:49:32.398Z,57.58
2022-12-07T08:51:59.252Z,57.02
2022-12-07T08:54:26.255Z,56.59
2022-12-07T08:56:58.704Z,58.28
2022-12-07T08:59:27.117Z,56.62
2022-12-07T09:01:54.315Z,57.76
2022-12-07T09:04:21.842Z,56.63
2022-12-07T09:06:49.003Z,54.66
2022-12-07T09:09:16.145Z,53.24
2022-12-07T09:11:43.053Z,54.31
2022-12-07T09:14:10.095Z,55.63
2022-12-07T09:16:37.055Z,53.45
2022-12-07T09:19:04.060Z,53.33
2022-12-07T09:21:31.128Z,51.59
2022-12-07T09:23:57.997Z,49.73
2022-12-07T09:26:24.908Z,50.06
2022-12-07T09:28:52.798Z,47.86
2022-12-07T09:31:24.433Z,49.09
2022-12-07T09:34:00.014Z,46.99
2022-12-07T09:36:27.234Z,46.48
2022-12-07T09:38:54.133Z,47.69
2022-12-07T09:41:21.609Z,46.17
2022-12-07T09:43:48.512Z,44.80
2022-12-07T09:46:17.049Z,46.41
2022-12-07T09:48:44.726Z,47.91
2022-12-07T09:51:24.681Z,47.27
2022-12-07T09:53:56.710Z,46.84
2022-12-07T09:56:24.484Z,49.79
2022-12-07T09:58:55.247Z,46.42
2022-12-07T10:01:23.070Z,45.28
2022-12-07T10:03:59.913Z,44.85
2022-12-07T10:06:26.772Z,44.63
2022-12-07T10:08:53.820Z,42.39
2022-12-07T10:11:20.677Z,44.37
2022-12-07T10:13:50.370Z,45.35
2022-12-07T10:16:26.158Z,43.36
2022-12-07T10:18:53.617Z,45.43
2022-12-07T10:21:25.310Z,45.98
2022-12-07T10:24:17.872Z,45.63
2022-12-07T10:26:47.734Z,45.91
2022-12-07T10:29:39.933Z,42.85
2022-12-07T10:32:35.554Z,44.29
2022-12-07T10:35:28.700Z,41.98
2022-12-07T10:37:58.804Z,43.21
2022-12-07T10:40:30.107Z,45.06
2022-12-07T10:43:14.078Z,43.51
2022-12-07T10:46:03.350Z,43.54
2022-12-07T10:48:56.234Z,42.74
2022-12-07T10:51:39.204Z,43.14
2022-12-07T10:54:20.552Z,40.96
2022-12-07T10:57:00.303Z,40.84
2022-12-07T11:00:00.884Z,41.96
2022-12-07T11:02:39.964Z,41.87
2022-12-07T11:05:17.223Z,42.74
2022-12-07T11:08:21.825Z,44.66
2022-12-07T11:10:57.155Z,44.57
2022-12-07T11:13:31.238Z,45.10
2022-12-07T11:16:34.134Z,45.18
2022-12-07T11:19:29.829Z,45.64
2022-12-07T11:22:05.351Z,46.42
2022-12-07T11:25:15.729Z,46.95
2022-12-07T11:27:53.747Z,49.21
2022-12-07T11:30:29.310Z,49.09
2022-12-07T11:33:02.495Z,49.05
2022-12-07T11:35:38.086Z,49.19
2022-12-07T11:38:13.811Z,52.56
2022-12-07T11:40:42.028Z,51.04
2022-12-07T11:43:27.552Z,47.71
2022-12-07T11:46:05.741Z,48.17
2022-12-07T11:48:37.371Z,49.91
2022-12-07T11:51:05.708Z,49.58
2022-12-07T11:54:18.651Z,47.87
2022-12-07T11:56:47.225Z,51.69
2022-12-07T11:59:17.053Z,49.46
2022-12-07T12:01:52.583Z,50.17
2022-12-07T12:04:46.852Z,51.22
2022-12-07T12:10:33.814Z,53.35
2022-12-07T12:16:34.357Z,52.00
2022-12-07T12:19:39.789Z,52.09
2022-12-07T12:22:19.198Z,52.40
2022-12-07T12:24:49.609Z,49.15
2022-12-07T12:27:39.742Z,53.18
2022-12-07T12:30:25.508Z,51.48
2022-12-07T12:32:52.749Z,49.46
2022-12-07T12:35:32.684Z,48.82
2022-12-07T12:38:32.109Z,48.54
2022-12-07T12:40:59.338Z,48.88
2022-12-07T12:43:47.370Z,46.56
2022-12-07T12:46:36.132Z,46.56
2022-12-07T12:49:21.329Z,46.42
2022-12-07T12:51:52.861Z,49.23
2022-12-07T12:54:19.669Z,47.71
2022-12-07T12:56:52.101Z,46.29
2022-12-07T12:59:29.844Z,46.10
2022-12-07T13:02:36.686Z,49.02
2022-12-07T13:05:11.305Z,48.41
2022-12-07T13:07:53.934Z,46.72
2022-12-07T13:10:38.422Z,48.46
2022-12-07T13:13:25.248Z,47.48
2022-12-07T13:16:16.541Z,46.44
2022-12-07T13:18:43.725Z,46.40
2022-12-07T13:21:10.566Z,45.93
2022-12-07T13:23:53.351Z,45.17
2022-12-07T13:26:33.516Z,45.32
2022-12-07T13:29:18.706Z,43.73
2022-12-07T13:31:47.091Z,42.78
2022-12-07T13:34:42.991Z,45.00
2022-12-07T13:37:31.390Z,44.42
2022-12-07T13:40:20.391Z,45.71
2022-12-07T13:42:47.283Z,46.07
2022-12-07T13:45:50.610Z,43.32
2022-12-07T13:48:31.898Z,44.37
2022-12-07T13:51:00.134Z,42.81
2022-12-07T13:53:31.397Z,41.56
2022-12-07T13:55:59.879Z,43.25
2022-12-07T13:58:28.601Z,42.50
2022-12-07T14:00:55.619Z,40.99
2022-12-07T14:03:32.678Z,42.35
2022-12-07T14:06:26.728Z,43.32
2022-12-07T14:09:19.963Z,42.38
2022-12-07T14:11:47.738Z,42.88
2022-12-07T14:14:35.960Z,42.32
2022-12-07T14:17:24.741Z,40.55
2022-12-07T14:19:54.003Z,41.46
2022-12-07T14:22:23.388Z,42.58
2022-12-07T14:24:50.513Z,42.77
2022-12-07T14:27:22.956Z,42.24
2022-12-07T14:29:50.879Z,42.16
2022-12-07T14:32:30.229Z,41.29
2022-12-07T14:35:12.175Z,40.75
2022-12-07T14:37:41.023Z,41.87
2022-12-07T14:40:13.655Z,41.49
2022-12-07T14:42:41.050Z,42.12
2022-12-07T14:45:15.174Z,42.11
2022-12-07T14:50:31.477Z,40.87
2022-12-07T14:55:48.042Z,41.48
2022-12-07T14:58:16.164Z,41.28
2022-12-07T15:00:44.862Z,42.30
2022-12-07T15:03:14.191Z,41.34
2022-12-07T15:05:42.179Z,41.90
2022-12-07T15:08:14.097Z,41.79
2022-12-07T15:10:42.379Z,44.66
2022-12-07T15:13:28.384Z,44.53
2022-12-07T15:15:56.240Z,44.79
2022-12-07T15:18:24.184Z,44.70
2022-12-07T15:20:51.525Z,44.16
2022-12-07T15:23:18.451Z,43.67
2022-12-07T15:25:47.179Z,44.14
2022-12-07T15:28:14.274Z,44.19
2022-12-07T15:30:44.013Z,44.70
2022-12-07T15:33:12.419Z,44.42
2022-12-07T15:35:45.790Z,44.43
2022-12-07T15:38:13.097Z,44.20
2022-12-07T15:40:41.101Z,44.01
2022-12-07T15:43:30.549Z,43.68
2022-12-07T15:45:57.524Z,42.15
2022-12-07T15:48:28.903Z,41.05
2022-12-07T15:51:09.026Z,42.99
2022-12-07T15:53:37.103Z,42.72
2022-12-07T15:56:07.914Z,43.40
2022-12-07T15:58:34.988Z,41.11
2022-12-07T16:01:02.001Z,42.28
2022-12-07T16:03:28.942Z,43.01
2022-12-07T16:05:55.824Z,43.78
2022-12-07T16:08:22.735Z,43.46
2022-12-07T16:10:49.704Z,44.03
2022-12-07T16:13:16.572Z,42.07
2022-12-07T16:15:44.257Z,43.96
2022-12-07T16:18:11.317Z,45.54
2022-12-07T16:20:38.211Z,45.74
2022-12-07T16:23:05.210Z,45.59
2022-12-07T16:25:32.081Z,44.25
2022-12-07T16:27:58.963Z,45.32
2022-12-07T16:30:26.601Z,45.80
2022-12-07T16:32:55.835Z,45.57
2022-12-07T16:35:26.212Z,44.26
2022-12-07T16:37:53.093Z,43.33
2022-12-07T16:40:20.028Z,44.81
2022-12-07T16:42:46.884Z,45.41
2022-12-07T16:45:19.352Z,45.14
2022-12-07T16:47:47.778Z,45.11
2022-12-07T16:50:14.657Z,45.29
2022-12-07T16:52:41.541Z,43.94
2022-12-07T16:55:08.863Z,45.26
2022-12-07T16:57:35.747Z,44.35
2022-12-07T17:00:04.772Z,43.89
2022-12-07T17:02:31.620Z,43.87
2022-12-07T17:04:58.586Z,44.47
2022-12-07T17:07:25.448Z,45.09
2022-12-07T17:09:54.814Z,46.53
2022-12-07T17:12:21.701Z,46.89
2022-12-07T17:15:07.214Z,47.04
2022-12-07T17:22:14.801Z,54.48
2022-12-07T17:24:41.685Z,54.48
2022-12-07T17:27:09.331Z,55.77
2022-12-07T17:29:36.233Z,56.15
2022-12-07T17:32:03.193Z,60.16
2022-12-07T17:34:30.322Z,62.93
2022-12-07T17:36:57.171Z,62.87
2022-12-07T17:39:23.861Z,63.75
2022-12-07T17:42:09.434Z,65.95
2022-12-07T17:44:36.322Z,71.28
2022-12-07T17:47:04.252Z,76.04
2022-12-07T17:49:31.296Z,76.95
2022-12-07T17:52:16.820Z,75.23
2022-12-07T17:54:44.252Z,74.93
2022-12-07T17:57:11.171Z,75.73
2022-12-07T17:59:39.079Z,76.16
2022-12-07T18:02:06.107Z,76.17
2022-12-07T18:04:33.866Z,76.96
2022-12-07T18:07:00.720Z,77.43
2022-12-07T18:09:27.591Z,77.36
2022-12-07T18:11:54.435Z,78.08
2022-12-07T18:14:21.411Z,77.84
2022-12-07T18:16:49.930Z,76.55
2022-12-07T18:19:17.353Z,78.85
2022-12-07T18:21:45.135Z,78.85
2022-12-07T18:24:13.481Z,86.68
2022-12-07T18:26:41.215Z,93.12
2022-12-07T18:29:09.110Z,83.05
2022-12-07T18:31:36.543Z,80.33
2022-12-07T18:34:08.816Z,83.28
2022-12-07T18:36:35.826Z,82.27
2022-12-07T18:39:06.581Z,82.02
2022-12-07T18:41:33.509Z,81.76
2022-12-07T18:44:00.169Z,84.87
2022-12-07T18:46:27.134Z,83.02
2022-12-07T18:48:57.210Z,82.99
2022-12-07T18:51:28.752Z,83.91
2022-12-07T18:54:00.535Z,84.86
2022-12-07T18:56:27.908Z,86.27
2022-12-07T18:59:20.385Z,87.50
2022-12-07T19:01:50.053Z,91.20
2022-12-07T19:04:17.518Z,89.22
2022-12-07T19:06:46.239Z,86.43
2022-12-07T19:09:13.818Z,90.90
2022-12-07T19:11:51.171Z,91.82
2022-12-07T19:14:21.801Z,91.21
2022-12-07T19:16:52.492Z,90.58
2022-12-07T19:19:21.596Z,88.27
2022-12-07T19:21:49.101Z,91.13
2022-12-07T19:24:22.769Z,90.29
2022-12-07T19:26:50.876Z,90.25
2022-12-07T19:29:17.718Z,90.58
2022-12-07T19:31:44.410Z,90.37
2022-12-07T19:34:12.856Z,90.62
2022-12-07T19:36:40.175Z,90.17
2022-12-07T19:39:12.985Z,89.32
2022-12-07T19:41:44.163Z,88.60
2022-12-07T19:44:22.970Z,88.40
2022-12-07T19:46:51.270Z,86.61
2022-12-07T19:49:19.481Z,86.88
2022-12-07T19:51:48.274Z,84.04
2022-12-07T19:54:16.531Z,84.81
2022-12-07T19:56:44.241Z,82.75
2022-12-07T19:59:12.251Z,83.21
2022-12-07T20:01:41.037Z,83.99
2022-12-07T20:04:12.420Z,84.62
2022-12-07T20:06:39.596Z,85.36
2022-12-07T20:09:06.626Z,85.55
2022-12-07T20:11:52.190Z,86.11
2022-12-07T20:14:19.029Z,86.13
2022-12-07T20:16:46.007Z,86.32
2022-12-07T20:19:13.938Z,86.41
2022-12-07T20:21:41.718Z,86.38
2022-12-07T20:24:11.773Z,86.29
2022-12-07T20:26:39.449Z,84.84
2022-12-07T20:29:10.963Z,85.09
2022-12-07T20:31:40.226Z,84.36
2022-12-07T20:34:06.983Z,84.77
2022-12-07T20:36:33.932Z,85.22
2022-12-07T20:39:02.329Z,85.01
2022-12-07T20:41:47.831Z,84.97
2022-12-07T20:44:15.381Z,87.01
2022-12-07T20:46:42.691Z,85.73
2022-12-07T20:49:15.379Z,82.47
2022-12-07T20:51:42.368Z,81.33
2022-12-07T20:54:09.255Z,80.42
2022-12-07T20:56:37.331Z,81.58
2022-12-07T20:59:06.193Z,82.93
2022-12-07T21:01:33.388Z,83.43
2022-12-07T21:04:01.420Z,83.29
2022-12-07T21:06:29.219Z,83.92
2022-12-07T21:08:58.184Z,83.73
2022-12-07T21:11:25.789Z,83.93
2022-12-07T21:13:52.623Z,83.80
2022-12-07T21:16:20.796Z,83.65
2022-12-07T21:18:48.678Z,83.16
2022-12-07T21:21:19.493Z,87.15
2022-12-07T21:23:50.950Z,87.17
2022-12-07T21:26:20.979Z,86.23
2022-12-07T21:28:48.298Z,86.28
2022-12-07T21:31:15.940Z,84.57
2022-12-07T21:33:44.358Z,84.72
2022-12-07T21:36:13.017Z,84.55
2022-12-07T21:38:39.882Z,85.29
2022-12-07T21:41:16.767Z,87.74
2022-12-07T21:43:44.522Z,89.77
2022-12-07T21:46:11.891Z,89.39
2022-12-07T21:48:39.310Z,91.13
2022-12-07T21:51:12.378Z,91.52
2022-12-07T21:53:40.874Z,90.73
2022-12-07T21:56:19.673Z,90.81
2022-12-07T21:58:47.099Z,90.06
2022-12-07T22:01:21.853Z,88.42
2022-12-07T22:03:49.322Z,88.03
2022-12-07T22:06:18.157Z,85.04
2022-12-07T22:08:45.097Z,85.29
2022-12-07T22:11:13.043Z,86.32
2022-12-07T22:14:06.738Z,85.69
2022-12-07T22:16:37.328Z,85.87
2022-12-07T22:19:04.315Z,85.05
2022-12-07T22:21:31.910Z,88.82
2022-12-07T22:23:58.786Z,88.04
2022-12-07T22:26:26.071Z,89.56
2022-12-07T22:28:52.989Z,89.24
2022-12-07T22:31:20.601Z,89.29
2022-12-07T22:33:47.944Z,88.47
2022-12-07T22:36:15.233Z,90.30
2022-12-07T22:38:42.464Z,88.54
2022-12-07T22:41:21.626Z,87.96
2022-12-07T22:43:48.510Z,89.15
2022-12-07T22:46:15.445Z,88.96
2022-12-07T22:48:42.352Z,88.20
2022-12-07T22:51:18.548Z,88.72
2022-12-07T22:53:45.403Z,88.78
2022-12-07T22:56:12.056Z,88.15
2022-12-07T22:58:40.271Z,88.13
2022-12-07T23:01:10.517Z,88.22
2022-12-07T23:03:37.483Z,88.37
2022-12-07T23:06:13.395Z,87.49
2022-12-07T23:08:40.284Z,88.29
2022-12-07T23:11:38.520Z,88.93
2022-12-07T23:14:06.087Z,87.45
2022-12-07T23:16:32.972Z,86.29
2022-12-07T23:18:59.669Z,88.28
2022-12-07T23:21:26.569Z,87.60
2022-12-07T23:23:53.416Z,85.96
2022-12-07T23:26:20.064Z,88.48
2022-12-07T23:28:46.947Z,88.60
2022-12-07T23:31:16.977Z,88.95
2022-12-07T23:33:44.376Z,88.76
2022-12-07T23:36:13.777Z,89.06
2022-12-07T23:38:42.134Z,89.58
2022-12-07T23:41:12.058Z,88.22
2022-12-07T23:43:39.575Z,86.17
2022-12-07T23:46:15.123Z,85.35
2022-12-07T23:48:42.346Z,84.61
2022-12-07T23:51:10.662Z,85.35
2022-12-07T23:53:39.949Z,86.79
2022-12-07T23:56:07.750Z,87.84
2022-12-07T23:58:34.645Z,87.37
